Time;durP1;ratioP1;P1;durP2;ratioP2;P2;SDS_P1;SDS_P2;PMS_P1;PMS_P2;Temp;Humidity;BMP_temperature;BMP_pressure;BME280_temperature;BME280_humidity;BME280_pressure;Samples;Min_cycle;Max_cycle;Signal;HPM_P1;HPM_P2
2022/01/03 00:02:16;;;;;;;11.70;2.20;;;9.60;99.90;;;;;;5030664;28;20041;-72
2022/01/03 00:04:42;;;;;;;13.30;2.20;;;9.60;99.90;;;;;;5030853;28;20037;-71
2022/01/03 00:07:11;;;;;;;8.02;1.88;;;9.60;99.90;;;;;;5030900;28;20081;-72
2022/01/03 00:09:36;;;;;;;14.20;2.28;;;9.70;99.90;;;;;;5029974;28;20045;-71
2022/01/03 00:12:02;;;;;;;15.23;3.00;;;9.70;99.90;;;;;;5017737;28;20111;-72
2022/01/03 00:14:29;;;;;;;16.10;2.92;;;9.70;99.90;;;;;;5033483;28;20045;-72
2022/01/03 00:16:54;;;;;;;21.02;2.75;;;9.70;99.90;;;;;;5029446;28;20052;-72
2022/01/03 00:19:20;;;;;;;14.30;2.75;;;9.70;99.90;;;;;;5030785;28;20041;-72
2022/01/03 00:21:47;;;;;;;14.70;2.88;;;9.70;99.90;;;;;;5030323;28;20080;-72
2022/01/03 00:24:13;;;;;;;12.98;3.00;;;9.70;99.90;;;;;;5029309;28;20052;-72
2022/01/03 00:26:39;;;;;;;15.90;2.63;;;9.70;99.90;;;;;;5029421;28;20144;-72
2022/01/03 00:29:18;;;;;;;20.00;3.60;;;9.80;99.90;;;;;;5029569;28;20049;-72
2022/01/03 00:31:44;;;;;;;16.80;4.28;;;9.80;99.90;;;;;;5030631;28;20053;-72
2022/01/03 00:34:14;;;;;;;21.83;3.40;;;9.80;99.90;;;;;;5030839;28;20048;-72
2022/01/03 00:36:43;;;;;;;22.40;3.83;;;9.80;99.90;;;;;;5030949;28;20044;-72
2022/01/03 00:39:10;;;;;;;19.00;3.00;;;9.80;99.90;;;;;;5013027;28;20116;-72
2022/01/03 00:41:38;;;;;;;17.88;3.28;;;9.80;99.90;;;;;;5029480;28;20440;-73
2022/01/03 00:44:04;;;;;;;17.75;3.28;;;9.90;99.90;;;;;;5030429;28;20044;-72
2022/01/03 00:46:31;;;;;;;17.05;2.95;;;9.90;99.90;;;;;;5012875;28;20049;-72
2022/01/03 00:48:59;;;;;;;18.58;3.45;;;9.90;99.90;;;;;;5012946;28;20465;-72
2022/01/03 00:51:25;;;;;;;17.52;2.78;;;9.90;99.90;;;;;;5030158;28;20045;-72
2022/01/03 00:53:51;;;;;;;23.25;4.13;;;9.90;99.90;;;;;;5032634;28;20119;-71
2022/01/03 00:56:33;;;;;;;17.85;3.28;;;9.90;99.90;;;;;;5032825;28;20056;-72
2022/01/03 00:59:08;;;;;;;15.82;2.75;;;9.90;99.90;;;;;;5034814;28;20052;-71
2022/01/03 01:01:36;;;;;;;25.50;3.22;;;9.90;99.90;;;;;;5034132;28;20048;-72
2022/01/03 01:04:03;;;;;;;20.27;2.92;;;9.90;99.90;;;;;;5032714;28;20080;-71
2022/01/03 01:06:33;;;;;;;24.25;3.28;;;9.90;99.90;;;;;;5032780;28;20383;-71
2022/01/03 01:09:02;;;;;;;19.55;3.55;;;9.90;99.90;;;;;;5032630;28;20114;-71
2022/01/03 01:11:30;;;;;;;12.63;3.13;;;9.90;99.90;;;;;;5033641;28;20120;-71
2022/01/03 01:13:56;;;;;;;16.63;3.08;;;9.90;99.90;;;;;;5033530;28;20090;-71
2022/01/03 01:16:23;;;;;;;16.33;3.22;;;10.00;99.90;;;;;;5033828;28;20560;-70
2022/01/03 01:18:49;;;;;;;17.50;3.20;;;10.00;99.90;;;;;;5033799;28;20040;-71
2022/01/03 01:21:15;;;;;;;17.70;3.40;;;10.00;99.90;;;;;;5032368;28;20046;-71
2022/01/03 01:23:42;;;;;;;17.08;3.20;;;10.00;99.90;;;;;;5032385;28;20057;-71
2022/01/03 01:28:53;;;;;;;20.92;3.80;;;10.00;99.90;;;;;;5032023;28;20037;-71
2022/01/03 01:31:23;;;;;;;16.25;2.85;;;10.00;99.90;;;;;;5015902;28;20041;-72
2022/01/03 01:33:53;;;;;;;17.70;3.67;;;10.00;99.90;;;;;;5034011;28;20103;-71
2022/01/03 01:36:22;;;;;;;23.40;3.33;;;10.00;99.90;;;;;;5040274;28;20046;-71
2022/01/03 01:38:51;;;;;;;23.35;4.13;;;10.00;99.90;;;;;;5037325;28;20091;-71
2022/01/03 01:41:18;;;;;;;18.38;3.70;;;10.10;99.90;;;;;;5032878;28;20401;-72
2022/01/03 01:43:49;;;;;;;19.42;2.80;;;10.10;99.90;;;;;;5031858;28;20132;-72
2022/01/03 01:46:16;;;;;;;19.77;2.88;;;10.00;99.90;;;;;;5033805;28;20045;-74
2022/01/03 01:48:44;;;;;;;15.60;3.00;;;10.10;99.90;;;;;;5032039;28;20053;-73
2022/01/03 01:51:12;;;;;;;15.63;2.97;;;10.10;99.90;;;;;;5033306;28;20060;-71
2022/01/03 01:53:52;;;;;;;18.63;3.05;;;10.10;99.90;;;;;;5014925;28;20053;-71
2022/01/03 01:56:23;;;;;;;25.95;4.72;;;10.00;99.90;;;;;;5032128;28;20401;-71
2022/01/03 01:58:58;;;;;;;17.95;4.50;;;10.00;99.90;;;;;;5031909;28;20041;-72
2022/01/03 02:01:41;;;;;;;16.27;3.13;;;10.10;99.90;;;;;;5031526;28;20136;-71
2022/01/03 02:04:27;;;;;;;20.92;3.25;;;10.10;99.90;;;;;;5031106;28;20124;-71
2022/01/03 02:06:56;;;;;;;23.33;3.78;;;10.10;99.90;;;;;;5031851;28;20425;-72
2022/01/03 02:09:42;;;;;;;24.20;3.80;;;10.10;99.90;;;;;;5031485;28;20046;-70
2022/01/03 02:12:16;;;;;;;15.60;4.00;;;10.00;99.90;;;;;;5033459;28;20405;-72
2022/01/03 02:14:43;;;;;;;20.45;3.10;;;10.10;99.90;;;;;;5036583;28;20164;-71
2022/01/03 02:17:09;;;;;;;11.93;3.03;;;10.00;99.90;;;;;;5032240;28;20056;-73
2022/01/03 02:19:36;;;;;;;12.32;2.85;;;10.00;99.90;;;;;;5031452;28;20033;-72
2022/01/03 02:22:02;;;;;;;14.40;2.70;;;10.00;99.90;;;;;;5031037;28;20041;-72
2022/01/03 02:24:28;;;;;;;21.00;3.35;;;10.00;99.90;;;;;;5031263;28;20037;-72
2022/01/03 02:26:54;;;;;;;19.73;3.35;;;10.00;99.90;;;;;;5032356;28;20091;-73
2022/01/03 02:29:20;;;;;;;27.30;3.85;;;10.00;99.90;;;;;;5031432;28;20462;-72
2022/01/03 02:31:45;;;;;;;17.10;3.80;;;10.00;99.90;;;;;;5030759;28;20178;-73
2022/01/03 02:34:11;;;;;;;21.42;4.00;;;10.00;99.90;;;;;;5030989;28;20041;-71
2022/01/03 02:36:37;;;;;;;14.30;2.63;;;10.00;99.90;;;;;;5031028;28;20416;-72
2022/01/03 02:39:03;;;;;;;20.63;3.38;;;9.90;99.90;;;;;;5014476;28;20037;-72
2022/01/03 02:41:29;;;;;;;25.42;3.20;;;9.90;99.90;;;;;;5032125;28;20037;-72
2022/01/03 02:43:55;;;;;;;17.80;3.33;;;9.90;99.90;;;;;;5030565;28;20571;-72
2022/01/03 02:46:21;;;;;;;24.17;3.40;;;10.00;99.90;;;;;;5030723;28;20052;-72
2022/01/03 02:48:46;;;;;;;15.80;3.58;;;9.90;99.90;;;;;;5030683;28;20417;-72
2022/01/03 02:51:12;;;;;;;19.70;2.97;;;9.90;99.90;;;;;;5030858;28;20044;-72
2022/01/03 02:53:39;;;;;;;13.02;3.08;;;9.90;99.90;;;;;;5031431;28;20090;-72
2022/01/03 02:56:06;;;;;;;20.67;3.13;;;9.90;99.90;;;;;;5017391;28;20140;-72
2022/01/03 02:58:31;;;;;;;24.25;3.38;;;9.90;99.90;;;;;;5036845;28;20053;-72
2022/01/03 03:00:57;;;;;;;21.08;3.63;;;9.90;99.90;;;;;;5033931;28;20037;-71
2022/01/03 03:03:23;;;;;;;16.55;3.70;;;9.90;99.90;;;;;;5030613;28;20171;-72
2022/01/03 03:05:50;;;;;;;15.13;4.57;;;9.90;99.90;;;;;;5013945;28;20045;-72
2022/01/03 03:08:16;;;;;;;24.33;3.90;;;9.90;99.90;;;;;;5030603;28;20434;-72
2022/01/03 03:10:42;;;;;;;15.20;3.28;;;9.90;99.90;;;;;;5030265;28;20069;-73
2022/01/03 03:13:08;;;;;;;20.77;3.65;;;9.80;99.90;;;;;;5030082;28;20038;-72
2022/01/03 03:15:35;;;;;;;17.77;3.60;;;9.80;99.90;;;;;;5030034;28;20041;-72
2022/01/03 03:18:02;;;;;;;16.90;3.13;;;9.80;99.90;;;;;;5031060;28;20044;-72
2022/01/03 03:20:29;;;;;;;17.67;3.53;;;9.80;99.90;;;;;;5031527;28;20033;-72
2022/01/03 03:22:56;;;;;;;28.13;3.90;;;9.80;99.90;;;;;;5031186;28;20041;-72
2022/01/03 03:25:28;;;;;;;19.95;3.30;;;9.80;99.90;;;;;;5030405;28;20129;-72
2022/01/03 03:28:00;;;;;;;17.92;4.30;;;9.80;99.90;;;;;;5033286;28;20124;-72
2022/01/03 03:30:27;;;;;;;;;;;9.80;99.90;;;;;;5032039;28;20049;-72
2022/01/03 03:32:56;;;;;;;16.05;2.75;;;9.80;99.90;;;;;;5029993;28;19916;-72
2022/01/03 03:35:22;;;;;;;30.35;3.25;;;9.80;99.90;;;;;;5029780;28;20081;-71
2022/01/03 03:37:48;;;;;;;16.38;2.97;;;9.80;99.90;;;;;;5029925;28;20048;-72
2022/01/03 03:40:14;;;;;;;21.02;2.97;;;9.80;99.90;;;;;;5013325;28;20044;-72
2022/01/03 03:42:40;;;;;;;18.23;3.35;;;9.70;99.90;;;;;;5030899;28;20103;-72
2022/01/03 03:45:07;;;;;;;25.25;3.60;;;9.70;99.90;;;;;;5029912;28;20045;-72
2022/01/03 03:47:32;;;;;;;16.10;3.00;;;9.70;99.90;;;;;;5030615;28;20521;-72
2022/01/03 03:49:58;;;;;;;25.08;3.55;;;9.70;99.90;;;;;;5031161;28;20033;-72
2022/01/03 03:52:23;;;;;;;29.92;4.63;;;9.70;99.90;;;;;;5029350;28;20554;-72
2022/01/03 03:54:49;;;;;;;26.67;3.75;;;9.70;99.90;;;;;;5030879;28;20564;-72
2022/01/03 03:57:15;;;;;;;18.48;3.85;;;9.70;99.90;;;;;;5030819;28;20164;-72
2022/01/03 03:59:40;;;;;;;17.50;3.00;;;9.70;99.90;;;;;;5030828;28;20526;-72
2022/01/03 04:02:07;;;;;;;24.23;3.38;;;9.70;99.90;;;;;;5030707;28;20404;-72
2022/01/03 04:04:34;;;;;;;21.25;3.20;;;9.70;99.90;;;;;;5030932;28;20045;-72
2022/01/03 04:07:00;;;;;;;27.20;4.35;;;9.70;99.90;;;;;;5029564;28;20056;-71
2022/01/03 04:09:26;;;;;;;19.70;3.53;;;9.70;99.90;;;;;;5030773;28;20575;-72
2022/01/03 04:11:51;;;;;;;21.33;3.20;;;9.70;99.90;;;;;;5030448;28;20073;-72
2022/01/03 04:14:17;;;;;;;26.23;3.97;;;9.80;99.90;;;;;;5030739;28;20042;-72
2022/01/03 04:16:43;;;;;;;24.13;3.50;;;9.70;99.90;;;;;;5032461;28;20196;-72
2022/01/03 04:19:09;;;;;;;16.48;3.33;;;9.70;99.90;;;;;;5036978;28;20036;-72
2022/01/03 04:21:36;;;;;;;27.38;4.85;;;9.80;99.90;;;;;;5034706;28;20448;-72
2022/01/03 04:24:04;;;;;;;23.88;3.72;;;9.80;99.90;;;;;;5033636;28;20099;-71
2022/01/03 04:26:29;;;;;;;17.35;3.33;;;9.70;99.90;;;;;;5029770;28;20041;-73
2022/01/03 04:28:55;;;;;;;22.30;4.85;;;9.70;99.90;;;;;;5032170;28;20101;-72
2022/01/03 04:31:20;;;;;;;23.55;3.58;;;9.80;99.90;;;;;;5034920;28;20037;-72
2022/01/03 04:33:46;;;;;;;21.17;3.92;;;9.70;99.90;;;;;;5034488;28;20038;-72
2022/01/03 04:36:12;;;;;;;23.20;3.83;;;9.70;99.90;;;;;;5034708;28;20495;-72
2022/01/03 04:38:37;;;;;;;32.95;4.18;;;9.80;99.90;;;;;;5035065;28;20485;-73
2022/01/03 04:41:04;;;;;;;26.40;4.00;;;9.80;99.90;;;;;;5035799;28;20120;-72
2022/01/03 04:43:29;;;;;;;29.98;3.95;;;9.80;99.90;;;;;;5018779;28;20052;-72
2022/01/03 04:45:56;;;;;;;16.63;3.40;;;9.70;99.90;;;;;;5033015;28;20045;-72
2022/01/03 04:48:22;;;;;;;21.90;4.07;;;9.80;99.90;;;;;;5034271;28;20045;-72
2022/01/03 04:50:49;;;;;;;25.27;4.78;;;9.80;99.90;;;;;;5034189;28;20038;-72
2022/01/03 04:53:14;;;;;;;22.33;3.47;;;9.80;99.90;;;;;;5033942;28;20175;-72
2022/01/03 04:55:40;;;;;;;27.00;3.90;;;9.80;99.90;;;;;;5033897;28;20124;-73
2022/01/03 04:58:05;;;;;;;27.48;3.58;;;9.80;99.90;;;;;;5034130;28;20045;-71
2022/01/03 05:00:31;;;;;;;26.17;3.60;;;9.80;99.90;;;;;;5033989;28;20044;-72
2022/01/03 05:02:57;;;;;;;24.20;4.30;;;9.80;99.90;;;;;;5032569;28;20460;-72
2022/01/03 05:05:22;;;;;;;24.33;3.58;;;9.80;99.90;;;;;;5016304;28;20041;-72
2022/01/03 05:07:48;;;;;;;23.75;4.22;;;9.80;99.90;;;;;;5034087;28;20065;-71
2022/01/03 05:10:14;;;;;;;16.50;3.88;;;9.80;99.90;;;;;;5033799;28;20052;-72
2022/01/03 05:12:40;;;;;;;23.75;3.88;;;9.80;99.90;;;;;;5033734;28;20482;-72
2022/01/03 05:15:09;;;;;;;24.60;3.60;;;9.80;99.90;;;;;;5032322;28;20085;-71
2022/01/03 05:17:34;;;;;;;21.40;3.80;;;9.80;99.90;;;;;;5033749;28;20453;-70
2022/01/03 05:20:00;;;;;;;22.98;4.15;;;9.80;99.90;;;;;;5032367;28;20042;-70
2022/01/03 05:22:25;;;;;;;27.92;4.05;;;9.80;99.90;;;;;;5032304;28;20041;-70
2022/01/03 05:24:51;;;;;;;25.13;4.53;;;9.80;99.90;;;;;;5033599;28;20125;-70
2022/01/03 05:27:18;;;;;;;22.85;5.13;;;9.80;99.90;;;;;;5033390;28;20049;-70
2022/01/03 05:29:43;;;;;;;26.48;3.95;;;9.80;99.90;;;;;;5033665;28;20061;-70
2022/01/03 05:32:09;;;;;;;24.48;4.30;;;9.80;99.90;;;;;;5031963;28;20501;-70
2022/01/03 05:34:34;;;;;;;22.92;3.92;;;9.80;99.90;;;;;;5033486;28;20037;-70
2022/01/03 05:37:00;;;;;;;35.53;4.63;;;9.80;99.90;;;;;;5032523;28;20121;-69
2022/01/03 05:39:26;;;;;;;29.60;4.10;;;9.80;99.90;;;;;;5032570;28;20045;-69
2022/01/03 05:41:51;;;;;;;24.73;4.50;;;9.80;99.90;;;;;;5033890;28;20037;-69
2022/01/03 05:44:17;;;;;;;26.92;4.60;;;9.70;99.90;;;;;;5042046;28;20044;-70
2022/01/03 05:46:42;;;;;;;24.60;4.30;;;9.70;99.90;;;;;;5040422;28;20044;-70
2022/01/03 05:49:08;;;;;;;30.70;3.80;;;9.70;99.90;;;;;;5016043;28;20121;-70
2022/01/03 05:51:34;;;;;;;22.23;4.50;;;9.70;99.90;;;;;;5032468;28;20548;-70
2022/01/03 05:53:59;;;;;;;38.15;4.95;;;9.70;99.90;;;;;;5035677;28;20132;-70
2022/01/03 05:56:25;;;;;;;36.70;4.75;;;9.70;99.90;;;;;;5034930;28;20497;-70
2022/01/03 05:58:51;;;;;;;24.85;3.30;;;9.70;99.90;;;;;;5032364;28;20099;-68
2022/01/03 06:01:20;;;;;;;22.95;4.13;;;9.60;99.90;;;;;;5033429;28;20065;-69
2022/01/03 06:03:46;;;;;;;27.27;4.32;;;9.60;99.90;;;;;;5031487;28;20406;-69
2022/01/03 06:08:37;;;;;;;32.22;5.10;;;9.60;99.90;;;;;;5032818;28;20413;-69
2022/01/03 06:11:03;;;;;;;23.90;4.80;;;9.60;99.90;;;;;;5032822;28;20044;-69
2022/01/03 06:13:28;;;;;;;35.75;3.95;;;9.60;99.90;;;;;;5031290;28;20080;-69
2022/01/03 06:15:54;;;;;;;21.67;4.40;;;9.60;99.90;;;;;;5031307;28;20083;-69
2022/01/03 06:18:23;;;;;;;29.35;4.50;;;9.60;99.90;;;;;;5031269;28;20048;-69
2022/01/03 06:20:49;;;;;;;32.50;4.13;;;9.50;99.90;;;;;;5032540;28;20041;-69
2022/01/03 06:23:17;;;;;;;29.92;4.53;;;9.50;99.90;;;;;;5030874;28;20524;-69
2022/01/03 06:25:43;;;;;;;31.70;4.25;;;9.50;99.90;;;;;;5031442;28;20043;-69
2022/01/03 06:28:10;;;;;;;28.35;5.15;;;9.50;99.90;;;;;;5032280;28;20136;-70
2022/01/03 06:30:38;;;;;;;26.73;4.57;;;9.60;99.90;;;;;;5031004;28;20056;-70
2022/01/03 06:33:05;;;;;;;25.05;4.80;;;9.50;99.90;;;;;;5030753;28;20115;-70
2022/01/03 06:35:32;;;;;;;36.00;5.03;;;9.50;99.90;;;;;;5030751;28;20041;-70
2022/01/03 06:37:58;;;;;;;38.50;6.15;;;9.40;99.90;;;;;;5030976;28;20136;-68
2022/01/03 06:40:24;;;;;;;37.85;5.88;;;9.50;99.90;;;;;;5032240;28;20549;-69
2022/01/03 06:42:50;;;;;;;24.25;4.50;;;9.50;99.90;;;;;;5032053;28;20398;-69
2022/01/03 06:45:16;;;;;;;26.95;4.18;;;9.50;99.90;;;;;;5033196;28;20053;-70
2022/01/03 06:47:42;;;;;;;34.22;4.75;;;9.50;99.90;;;;;;5033704;28;20041;-70
2022/01/03 06:50:08;;;;;;;31.17;4.50;;;9.50;99.90;;;;;;5032321;28;20456;-70
2022/01/03 06:52:34;;;;;;;37.78;5.45;;;9.50;99.90;;;;;;5032767;28;20458;-69
2022/01/03 06:55:00;;;;;;;30.60;4.97;;;9.50;99.90;;;;;;5031432;28;20071;-70
2022/01/03 06:57:25;;;;;;;36.22;5.38;;;9.50;99.90;;;;;;5030657;28;20382;-69
2022/01/03 06:59:51;;;;;;;30.33;4.20;;;9.50;99.90;;;;;;5031909;28;20467;-69
2022/01/03 07:02:16;;;;;;;28.88;4.75;;;9.50;99.90;;;;;;5031574;28;20490;-70
2022/01/03 07:04:42;;;;;;;23.85;4.07;;;9.50;99.90;;;;;;5031953;28;20033;-70
2022/01/03 07:07:08;;;;;;;38.25;4.75;;;9.50;99.90;;;;;;5036509;28;20079;-70
2022/01/03 07:09:33;;;;;;;37.13;4.72;;;9.50;99.90;;;;;;5033948;28;20099;-70
2022/01/03 07:11:59;;;;;;;29.15;4.78;;;9.50;99.90;;;;;;5019956;28;20128;-70
2022/01/03 07:19:45;;;;;;;;;;;9.50;99.90;;;;;;5027252;28;20406;-69
2022/01/03 07:22:11;;;;;;;29.30;5.32;;;9.50;99.90;;;;;;5017259;28;20010;-69
2022/01/03 07:24:38;;;;;;;38.03;5.72;;;9.50;99.90;;;;;;5011831;28;20073;-69
2022/01/03 07:27:05;;;;;;;41.88;5.78;;;9.50;99.90;;;;;;5011689;28;20125;-69
2022/01/03 07:29:31;;;;;;;34.70;4.38;;;9.60;99.90;;;;;;5011693;28;20045;-69
2022/01/03 07:31:57;;;;;;;36.33;4.68;;;9.60;99.90;;;;;;5011260;28;20042;-69
2022/01/03 07:34:23;;;;;;;37.25;5.45;;;9.60;99.90;;;;;;5024994;28;20041;-73
2022/01/03 07:36:49;;;;;;;28.30;4.82;;;9.60;99.90;;;;;;5029926;28;20512;-72
2022/01/03 07:39:14;;;;;;;31.42;4.82;;;9.60;99.90;;;;;;5031167;28;20049;-71
2022/01/03 07:41:40;;;;;;;41.83;6.55;;;9.60;99.90;;;;;;5031061;28;20038;-71
2022/01/03 07:44:06;;;;;;;34.58;5.63;;;9.60;99.90;;;;;;5031122;28;20073;-71
2022/01/03 07:46:31;;;;;;;34.78;5.40;;;9.70;99.90;;;;;;5029957;28;20037;-72
2022/01/03 07:48:57;;;;;;;31.52;4.68;;;9.70;99.90;;;;;;5031020;28;20167;-71
2022/01/03 07:51:26;;;;;;;37.65;5.40;;;9.80;99.90;;;;;;5029973;28;20050;-70
2022/01/03 07:53:51;;;;;;;40.25;5.20;;;9.80;99.90;;;;;;5031369;28;20042;-71
2022/01/03 07:56:18;;;;;;;30.27;4.65;;;9.80;99.90;;;;;;5029375;28;20041;-69
2022/01/03 07:58:45;;;;;;;25.60;4.57;;;9.90;99.90;;;;;;5028269;28;20034;-70
2022/01/03 08:01:11;;;;;;;36.03;5.50;;;9.80;99.90;;;;;;5029061;28;20041;-70
2022/01/03 08:03:37;;;;;;;34.08;5.15;;;9.80;99.90;;;;;;5033130;28;20085;-71
2022/01/03 08:06:03;;;;;;;29.63;4.72;;;9.80;99.90;;;;;;5037550;28;20441;-71
2022/01/03 08:08:28;;;;;;;38.03;5.90;;;9.80;99.90;;;;;;5037394;28;20041;-70
2022/01/03 08:10:54;;;;;;;28.13;4.00;;;9.80;99.90;;;;;;5037495;28;20052;-70
2022/01/03 08:13:19;;;;;;;35.55;5.07;;;9.90;99.90;;;;;;5035817;28;20041;-73
2022/01/03 08:15:45;;;;;;;25.70;5.03;;;9.90;99.90;;;;;;5037244;28;20168;-69
2022/01/03 08:18:11;;;;;;;29.60;4.78;;;9.90;99.90;;;;;;5036543;28;20068;-70
2022/01/03 08:20:36;;;;;;;24.25;4.50;;;9.90;99.90;;;;;;5036727;28;20037;-70
2022/01/03 08:23:02;;;;;;;24.38;4.47;;;9.90;99.90;;;;;;5037470;28;20037;-71
2022/01/03 08:25:30;;;;;;;24.85;3.67;;;9.90;99.90;;;;;;5035979;28;20469;-73
2022/01/03 08:27:56;;;;;;;23.75;5.18;;;9.90;99.90;;;;;;5035825;28;20056;-71
2022/01/03 08:30:24;;;;;;;36.50;4.20;;;9.90;99.90;;;;;;5036204;28;20045;-71
2022/01/03 08:32:50;;;;;;;26.45;4.53;;;9.90;99.90;;;;;;5037089;28;20115;-72
2022/01/03 08:35:15;;;;;;;24.92;5.15;;;9.90;99.90;;;;;;5019267;28;20038;-71
2022/01/03 08:37:41;;;;;;;32.80;4.50;;;10.00;99.90;;;;;;5037244;28;20037;-70
2022/01/03 08:40:10;;;;;;;26.08;4.57;;;9.90;99.90;;;;;;5037101;28;20416;-71
2022/01/03 08:42:36;;;;;;;21.58;4.70;;;10.00;99.90;;;;;;5036882;28;20091;-70
2022/01/03 08:45:04;;;;;;;20.92;4.32;;;10.00;99.90;;;;;;5035778;28;20045;-71
2022/01/03 08:47:30;;;;;;;28.70;4.80;;;10.00;99.90;;;;;;5035829;28;20256;-70
2022/01/03 08:49:56;;;;;;;39.75;4.72;;;10.00;99.90;;;;;;5037041;28;20037;-70
2022/01/03 08:52:22;;;;;;;35.22;4.05;;;10.00;99.90;;;;;;5035359;28;20033;-69
2022/01/03 08:54:48;;;;;;;35.53;4.30;;;10.00;99.90;;;;;;5035534;28;20045;-70
2022/01/03 08:57:16;;;;;;;27.77;5.00;;;10.00;99.90;;;;;;5036843;28;20493;-70
2022/01/03 08:59:42;;;;;;;37.47;5.90;;;10.10;99.90;;;;;;5019347;28;20375;-70
2022/01/03 09:02:08;;;;;;;29.70;4.97;;;10.00;99.90;;;;;;5019071;28;20053;-70
2022/01/03 09:04:33;;;;;;;34.75;5.65;;;10.00;99.90;;;;;;5036531;28;20424;-71
2022/01/03 09:06:59;;;;;;;31.52;5.50;;;10.10;99.90;;;;;;5037001;28;20048;-70
2022/01/03 09:09:27;;;;;;;26.55;4.30;;;10.10;99.90;;;;;;5037062;28;20226;-72
2022/01/03 09:11:53;;;;;;;34.63;5.07;;;10.10;99.90;;;;;;5036634;28;20037;-71
2022/01/03 09:14:19;;;;;;;27.98;4.90;;;10.40;99.90;;;;;;5002021;28;20384;-73
2022/01/03 09:16:45;;;;;;;26.50;5.03;;;10.40;99.90;;;;;;5013835;28;20056;-71
2022/01/03 09:19:10;;;;;;;23.10;4.15;;;10.40;99.90;;;;;;5013940;28;20053;-71
2022/01/03 09:21:36;;;;;;;26.75;4.68;;;10.40;99.90;;;;;;5012465;28;20561;-71
2022/01/03 09:24:28;;;;;;;27.55;4.57;;;10.50;99.90;;;;;;4995981;28;20042;-70
2022/01/03 09:29:38;;;;;;;29.38;4.82;;;10.50;99.90;;;;;;5012367;28;20125;-72
2022/01/03 09:32:04;;;;;;;28.63;5.03;;;10.60;99.90;;;;;;5012049;28;20466;-72
2022/01/03 09:34:32;;;;;;;21.02;4.30;;;10.50;99.90;;;;;;5029068;28;20045;-72
2022/01/03 09:36:58;;;;;;;19.50;3.72;;;10.60;99.90;;;;;;5013446;28;20041;-72
2022/01/03 09:39:25;;;;;;;34.42;5.25;;;10.60;99.90;;;;;;5012551;28;20037;-72
2022/01/03 09:42:03;;;;;;;25.67;4.03;;;10.60;99.90;;;;;;4995538;28;20048;-71
2022/01/03 09:44:31;;;;;;;31.75;4.82;;;10.60;99.90;;;;;;5013495;28;20088;-71
2022/01/03 09:47:00;;;;;;;34.33;4.70;;;10.70;99.90;;;;;;5013462;28;20320;-71
2022/01/03 09:49:38;;;;;;;26.67;5.15;;;10.60;99.90;;;;;;5013300;28;20521;-72
2022/01/03 09:52:06;;;;;;;32.83;4.20;;;10.60;99.90;;;;;;5013260;28;20049;-71
2022/01/03 09:54:32;;;;;;;33.47;4.47;;;10.60;99.90;;;;;;5013295;28;20057;-73
2022/01/03 09:57:02;;;;;;;33.90;5.22;;;10.60;99.90;;;;;;5013207;28;20092;-71
2022/01/03 09:59:29;;;;;;;22.67;3.95;;;10.70;99.90;;;;;;5013161;28;20037;-71
2022/01/03 10:01:56;;;;;;;31.23;4.88;;;10.60;99.90;;;;;;4994526;28;20176;-71
2022/01/03 10:04:22;;;;;;;21.38;3.70;;;10.60;99.90;;;;;;5011981;28;20077;-69
2022/01/03 10:06:49;;;;;;;28.83;4.65;;;10.70;99.90;;;;;;5011691;28;20038;-73
2022/01/03 10:09:16;;;;;;;21.75;3.70;;;10.60;99.90;;;;;;5011628;28;20057;-72
2022/01/03 10:11:41;;;;;;;25.80;4.85;;;10.60;99.90;;;;;;4995137;28;20383;-73
2022/01/03 10:14:07;;;;;;;26.92;4.18;;;10.60;99.90;;;;;;5011262;28;20052;-71
2022/01/03 10:16:33;;;;;;;22.40;3.83;;;10.60;99.90;;;;;;5011339;28;20050;-71
2022/01/03 10:18:58;;;;;;;24.08;4.35;;;10.70;99.90;;;;;;5011657;28;20038;-72
2022/01/03 10:21:35;;;;;;;34.65;5.90;;;10.70;99.90;;;;;;5011250;28;20034;-71
2022/01/03 10:24:01;;;;;;;25.65;4.43;;;10.70;99.90;;;;;;5011219;28;20084;-71
2022/01/03 10:26:27;;;;;;;24.35;4.63;;;10.60;99.90;;;;;;5012016;28;20077;-71
2022/01/03 10:29:20;;;;;;;27.40;4.88;;;10.70;99.90;;;;;;4994712;28;20482;-72
2022/01/03 10:31:50;;;;;;;;;;;10.70;99.90;;;;;;5011681;28;20091;-71
2022/01/03 10:34:19;;;;;;;21.40;4.05;;;10.70;99.90;;;;;;5012619;28;20007;-71
2022/01/03 10:36:47;;;;;;;33.78;4.60;;;10.70;99.90;;;;;;5010997;28;20064;-72
2022/01/03 10:39:19;;;;;;;31.63;3.67;;;10.70;99.90;;;;;;5011380;28;20045;-72
2022/01/03 10:41:46;;;;;;;24.38;3.88;;;10.80;99.90;;;;;;5010941;28;20147;-70
2022/01/03 10:44:32;;;;;;;27.33;4.00;;;10.80;99.90;;;;;;5012494;28;20045;-71
2022/01/03 10:46:58;;;;;;;31.65;5.20;;;10.80;99.90;;;;;;5012344;28;20042;-71
2022/01/03 10:49:26;;;;;;;26.83;5.18;;;10.70;99.90;;;;;;5011129;28;20041;-69
2022/01/03 10:52:09;;;;;;;30.05;4.55;;;10.70;99.90;;;;;;5010651;28;20050;-70
2022/01/03 10:54:34;;;;;;;;;;;10.70;99.90;;;;;;5012813;28;20041;-71
2022/01/03 10:57:00;;;;;;;22.25;4.72;;;10.70;99.90;;;;;;5012345;28;19924;-70
2022/01/03 10:59:28;;;;;;;26.75;4.25;;;10.70;99.90;;;;;;5010714;28;20491;-71
2022/01/03 11:02:03;;;;;;;24.30;3.92;;;10.70;99.90;;;;;;5011663;28;20044;-71
2022/01/03 11:04:51;;;;;;;24.45;4.53;;;10.70;99.90;;;;;;5011832;28;20445;-70
2022/01/03 11:13:20;;;;;;;27.08;3.92;;;10.80;99.90;;;;;;5031134;28;20053;-71
2022/01/03 11:15:56;;;;;;;47.60;5.78;;;10.80;99.90;;;;;;5031603;28;20041;-71
2022/01/03 11:18:27;;;;;;;22.95;4.35;;;10.80;99.90;;;;;;5030198;28;20120;-71
2022/01/03 11:21:13;;;;;;;27.20;3.88;;;10.70;99.90;;;;;;5031448;28;20041;-71
2022/01/03 11:23:41;;;;;;;31.75;4.88;;;10.70;99.90;;;;;;5030045;28;20077;-71
2022/01/03 11:26:30;;;;;;;22.67;3.92;;;10.60;99.90;;;;;;5030219;28;20045;-70
2022/01/03 11:28:56;;;;;;;30.75;3.88;;;10.60;99.90;;;;;;5029607;28;20045;-70
2022/01/03 11:31:22;;;;;;;33.53;4.32;;;10.60;99.90;;;;;;5029788;28;20041;-71
2022/01/03 11:33:51;;;;;;;28.60;4.60;;;10.60;99.90;;;;;;5029445;28;20047;-71
2022/01/03 11:36:18;;;;;;;18.92;3.50;;;10.60;99.90;;;;;;5031220;28;20033;-70
2022/01/03 11:38:45;;;;;;;21.40;4.00;;;10.60;99.90;;;;;;5030359;28;20029;-70
2022/01/03 11:41:12;;;;;;;20.70;3.58;;;10.70;99.90;;;;;;5030977;28;20478;-70
2022/01/03 11:43:40;;;;;;;26.10;4.30;;;10.70;99.90;;;;;;5029483;28;20422;-71
2022/01/03 11:46:06;;;;;;;29.75;5.05;;;10.70;99.90;;;;;;5031125;28;20049;-70
2022/01/03 11:48:32;;;;;;;27.35;4.55;;;10.70;99.90;;;;;;5030966;28;20053;-70
2022/01/03 11:51:02;;;;;;;22.50;3.90;;;10.80;99.90;;;;;;5030924;28;20037;-70
2022/01/03 11:53:29;;;;;;;35.65;4.82;;;10.80;99.90;;;;;;5029403;28;20041;-69
2022/01/03 11:55:56;;;;;;;29.25;4.50;;;10.80;99.90;;;;;;5030762;28;20052;-70
2022/01/03 11:59:19;;;;;;;32.13;4.32;;;10.80;99.90;;;;;;5030764;28;20176;-68
2022/01/03 12:04:24;;;;;;;23.00;4.25;;;10.90;99.90;;;;;;5024418;28;20104;-69
2022/01/03 12:07:05;;;;;;;35.60;5.30;;;10.90;99.90;;;;;;5020050;28;20049;-69
2022/01/03 12:09:32;;;;;;;37.28;4.68;;;10.90;99.90;;;;;;5021562;28;20088;-69
2022/01/03 12:11:58;;;;;;;26.70;4.35;;;10.90;99.90;;;;;;5019269;28;20076;-69
2022/01/03 12:14:38;;;;;;;29.52;4.88;;;10.80;99.90;;;;;;5020501;28;20061;-69
2022/01/03 12:17:05;;;;;;;29.42;5.00;;;10.80;99.90;;;;;;5028564;28;20075;-69
2022/01/03 12:19:35;;;;;;;26.77;4.50;;;10.80;99.90;;;;;;5030696;28;20065;-68
2022/01/03 12:22:22;;;;;;;30.00;4.75;;;10.90;99.90;;;;;;5030369;28;20088;-69
2022/01/03 12:25:05;;;;;;;20.35;3.80;;;10.90;99.90;;;;;;5012892;28;20131;-68
2022/01/03 12:27:39;;;;;;;24.25;4.78;;;10.90;99.90;;;;;;5012177;28;20128;-70
2022/01/03 12:30:07;;;;;;;19.75;3.95;;;10.90;99.90;;;;;;5030438;28;20525;-71
2022/01/03 12:32:41;;;;;;;21.23;4.00;;;10.90;99.90;;;;;;5028988;28;20049;-68
2022/01/03 12:35:10;;;;;;;30.70;4.75;;;11.00;99.90;;;;;;5030505;28;20046;-70
2022/01/03 12:37:44;;;;;;;26.30;4.57;;;10.90;99.90;;;;;;5030897;28;20041;-69
2022/01/03 12:40:12;;;;;;;30.00;4.38;;;10.90;99.90;;;;;;5030620;28;20132;-69
2022/01/03 12:42:53;;;;;;;26.23;4.15;;;10.90;99.90;;;;;;5028907;28;20052;-69
2022/01/03 12:45:32;;;;;;;33.58;4.38;;;11.00;99.90;;;;;;5024323;28;20512;-67
2022/01/03 12:48:09;;;;;;;26.45;4.38;;;11.00;99.90;;;;;;5029144;28;20041;-69
2022/01/03 12:50:43;;;;;;;18.02;3.63;;;11.50;99.90;;;;;;5034008;28;20544;-71
2022/01/03 12:53:12;;;;;;;21.23;4.07;;;11.30;99.90;;;;;;5033878;28;20080;-70
2022/01/03 12:55:38;;;;;;;18.33;3.38;;;11.20;99.90;;;;;;5032678;28;20053;-71
2022/01/03 12:58:19;;;;;;;30.13;3.95;;;11.10;99.90;;;;;;5033973;28;20490;-70
2022/01/03 13:00:51;;;;;;;28.35;4.68;;;11.10;99.90;;;;;;5033881;28;20094;-71
2022/01/03 13:03:47;;;;;;;21.08;4.47;;;11.10;99.90;;;;;;5032253;28;20041;-70
2022/01/03 13:06:13;;;;;;;32.40;4.80;;;11.10;99.90;;;;;;5033917;28;20045;-71
2022/01/03 13:08:43;;;;;;;30.73;4.05;;;11.00;99.90;;;;;;5033731;28;20052;-70
2022/01/03 13:11:11;;;;;;;28.15;4.43;;;11.00;99.90;;;;;;5034053;28;20045;-72